createdAt,value
2018-03-07T00:02:24.475Z,97.86
2018-03-07T00:04:55.312Z,97.81
2018-03-07T00:07:26.156Z,97.78
2018-03-07T00:09:56.980Z,97.81
2018-03-07T00:12:27.759Z,97.82
2018-03-07T00:14:58.578Z,97.83
2018-03-07T00:17:29.406Z,97.82
2018-03-07T00:20:00.225Z,97.73
2018-03-07T00:22:31.065Z,97.73
2018-03-07T00:25:01.938Z,97.75
2018-03-07T00:27:32.776Z,97.75
2018-03-07T00:30:03.611Z,97.74
2018-03-07T00:32:34.449Z,97.65
2018-03-07T00:35:05.347Z,97.68
2018-03-07T00:37:36.177Z,97.74
2018-03-07T00:40:06.990Z,97.74
2018-03-07T00:42:37.814Z,97.64
2018-03-07T00:45:08.658Z,97.71
2018-03-07T00:47:39.474Z,97.69
2018-03-07T00:50:10.312Z,97.62
2018-03-07T00:52:41.186Z,97.62
2018-03-07T00:55:12.033Z,97.66
2018-03-07T00:57:42.837Z,97.68
2018-03-07T01:00:13.664Z,97.76
2018-03-07T01:02:44.497Z,97.79
2018-03-07T01:05:15.324Z,97.71
2018-03-07T01:07:46.188Z,97.76
2018-03-07T01:10:17.022Z,97.76
2018-03-07T01:12:47.824Z,97.74
2018-03-07T01:15:18.674Z,97.69
2018-03-07T01:17:49.466Z,97.76
2018-03-07T01:20:20.311Z,97.74
2018-03-07T01:22:51.133Z,97.71
2018-03-07T01:25:21.962Z,97.67
2018-03-07T01:27:52.765Z,97.53
2018-03-07T01:30:23.602Z,97.53
2018-03-07T01:32:54.421Z,97.61
2018-03-07T01:35:25.237Z,97.71
2018-03-07T01:37:56.055Z,97.79
2018-03-07T01:40:26.885Z,97.77
2018-03-07T01:42:57.693Z,97.85
2018-03-07T01:45:28.534Z,97.83
2018-03-07T01:47:59.368Z,97.85
2018-03-07T01:50:30.209Z,97.80
2018-03-07T01:53:01.019Z,97.75
2018-03-07T01:55:31.864Z,97.67
2018-03-07T01:58:02.683Z,97.62
2018-03-07T02:00:33.532Z,97.49
2018-03-07T02:03:04.362Z,97.69
2018-03-07T02:05:35.173Z,97.80
2018-03-07T02:08:06.019Z,97.83
2018-03-07T02:10:36.848Z,97.79
2018-03-07T02:13:07.653Z,97.80
2018-03-07T02:15:38.502Z,97.84
2018-03-07T02:18:09.325Z,97.82
2018-03-07T02:20:40.140Z,97.78
2018-03-07T02:23:10.967Z,97.79
2018-03-07T02:25:41.805Z,97.71
2018-03-07T02:28:12.631Z,97.48
2018-03-07T02:30:43.478Z,97.51
2018-03-07T02:33:14.317Z,97.52
2018-03-07T02:35:45.200Z,97.48
2018-03-07T02:38:16.005Z,97.56
2018-03-07T02:40:46.799Z,97.53
2018-03-07T02:43:17.627Z,97.56
2018-03-07T02:45:48.703Z,97.49
2018-03-07T02:48:19.513Z,97.42
2018-03-07T02:50:50.326Z,97.49
2018-03-07T02:53:21.193Z,97.51
2018-03-07T02:55:52.123Z,97.53
2018-03-07T02:58:22.964Z,97.56
2018-03-07T03:00:53.813Z,97.59
2018-03-07T03:03:24.646Z,97.56
2018-03-07T03:05:55.473Z,97.49
2018-03-07T03:08:26.313Z,97.39
2018-03-07T03:10:57.397Z,97.33
2018-03-07T03:13:28.210Z,97.36
2018-03-07T03:15:59.090Z,97.53
2018-03-07T03:18:29.877Z,97.64
2018-03-07T03:21:00.712Z,97.72
2018-03-07T03:23:31.529Z,97.67
2018-03-07T03:26:02.366Z,97.69
2018-03-07T03:28:33.200Z,97.77
2018-03-07T03:31:04.521Z,97.81
2018-03-07T03:33:35.342Z,97.81
2018-03-07T03:36:06.205Z,97.77
2018-03-07T03:38:37.061Z,97.70
2018-03-07T03:41:07.896Z,97.74
2018-03-07T03:43:38.699Z,97.78
2018-03-07T03:46:09.538Z,97.78
2018-03-07T03:48:40.377Z,97.86
2018-03-07T03:51:11.241Z,97.88
2018-03-07T03:53:42.096Z,97.75
2018-03-07T03:56:12.917Z,97.79
2018-03-07T03:58:43.731Z,97.85
2018-03-07T04:01:14.569Z,97.83
2018-03-07T04:03:45.383Z,97.84
2018-03-07T04:06:16.233Z,97.86
2018-03-07T04:08:47.105Z,97.78
2018-03-07T04:11:17.985Z,97.72
2018-03-07T04:13:48.785Z,97.65
2018-03-07T04:16:19.622Z,97.61
2018-03-07T04:18:50.480Z,97.59
2018-03-07T04:21:21.314Z,97.53
2018-03-07T04:23:52.148Z,97.41
2018-03-07T04:26:22.986Z,97.45
2018-03-07T04:28:53.845Z,97.50
2018-03-07T04:31:24.664Z,97.58
2018-03-07T04:33:55.474Z,97.49
2018-03-07T04:36:26.319Z,97.33
2018-03-07T04:38:57.169Z,97.31
2018-03-07T04:41:28.018Z,97.30
2018-03-07T04:43:58.806Z,97.18
2018-03-07T04:46:29.625Z,97.04
2018-03-07T04:49:00.459Z,96.92
2018-03-07T04:51:31.285Z,96.58
2018-03-07T04:54:02.107Z,96.55
2018-03-07T04:56:32.915Z,96.65
2018-03-07T04:59:03.723Z,96.62
2018-03-07T05:01:34.546Z,96.78
2018-03-07T05:04:05.358Z,96.85
2018-03-07T05:06:36.191Z,96.92
2018-03-07T05:09:06.978Z,97.02
2018-03-07T05:11:37.801Z,97.09
2018-03-07T05:14:08.611Z,97.15
2018-03-07T05:16:39.465Z,97.15
2018-03-07T05:19:10.266Z,96.96
2018-03-07T05:21:41.108Z,96.94
2018-03-07T05:24:11.941Z,96.72
2018-03-07T05:26:42.781Z,96.73
2018-03-07T05:29:13.656Z,96.66
2018-03-07T05:31:44.494Z,96.64
2018-03-07T05:34:15.357Z,96.74
2018-03-07T05:36:46.183Z,96.77
2018-03-07T05:39:17.009Z,96.79
2018-03-07T05:41:47.835Z,96.82
2018-03-07T05:44:18.637Z,96.96
2018-03-07T05:46:49.546Z,96.96
2018-03-07T05:49:20.513Z,97.00
2018-03-07T05:51:51.314Z,97.17
2018-03-07T05:54:22.138Z,97.50
2018-03-07T05:56:52.964Z,97.64
2018-03-07T05:59:23.780Z,97.79
2018-03-07T06:01:54.589Z,98.18
2018-03-07T06:04:25.473Z,98.41
2018-03-07T06:06:56.280Z,98.54
2018-03-07T06:09:27.100Z,98.45
2018-03-07T06:11:57.983Z,98.38
2018-03-07T06:14:28.820Z,98.19
2018-03-07T06:16:59.650Z,98.18
2018-03-07T06:19:30.465Z,97.96
2018-03-07T06:22:01.261Z,98.01
2018-03-07T06:24:32.450Z,97.90
2018-03-07T06:27:03.232Z,97.96
2018-03-07T06:29:34.073Z,97.83
2018-03-07T06:32:04.898Z,97.76
2018-03-07T06:34:35.734Z,97.70
2018-03-07T06:37:06.530Z,97.47
2018-03-07T06:39:37.363Z,97.37
2018-03-07T06:42:08.194Z,97.21
2018-03-07T06:44:38.989Z,97.07
2018-03-07T06:47:09.790Z,96.71
2018-03-07T06:49:40.630Z,96.36
2018-03-07T06:52:11.398Z,96.39
2018-03-07T06:54:42.242Z,96.53
2018-03-07T06:57:13.054Z,96.51
2018-03-07T06:59:43.909Z,96.68
2018-03-07T07:02:14.733Z,96.65
2018-03-07T07:04:45.630Z,96.47
2018-03-07T07:07:16.429Z,96.70
2018-03-07T07:09:47.242Z,96.54
2018-03-07T07:12:18.053Z,96.26
2018-03-07T07:14:48.870Z,95.87
2018-03-07T07:17:19.661Z,95.12
2018-03-07T07:19:50.461Z,94.38
2018-03-07T07:22:21.262Z,93.45
2018-03-07T07:24:52.157Z,93.21
2018-03-07T07:27:23.043Z,92.72
2018-03-07T07:29:54.950Z,92.23
2018-03-07T07:32:25.808Z,91.75
2018-03-07T07:34:57.731Z,91.11
2018-03-07T07:37:28.603Z,91.30
2018-03-07T07:39:59.427Z,88.91
2018-03-07T07:42:30.222Z,89.59
2018-03-07T07:45:01.092Z,89.21
2018-03-07T07:47:31.943Z,89.24
2018-03-07T07:50:02.822Z,88.46
2018-03-07T07:52:33.661Z,88.33
2018-03-07T07:55:04.596Z,86.36
2018-03-07T07:57:35.503Z,84.07
2018-03-07T08:00:06.368Z,83.36
2018-03-07T08:02:37.206Z,81.87
2018-03-07T08:05:09.217Z,82.02
2018-03-07T08:07:40.063Z,79.40
2018-03-07T08:10:10.898Z,79.79
2018-03-07T08:12:41.767Z,81.16
2018-03-07T08:15:12.662Z,81.73
2018-03-07T08:17:43.515Z,81.96
2018-03-07T08:20:14.444Z,80.04
2018-03-07T08:22:45.291Z,79.71
2018-03-07T08:25:16.171Z,78.83
2018-03-07T08:27:47.009Z,79.52
2018-03-07T08:30:17.916Z,77.97
2018-03-07T08:32:48.827Z,78.17
2018-03-07T08:35:19.686Z,78.19
2018-03-07T08:37:50.747Z,78.73
2018-03-07T08:40:21.593Z,79.38
2018-03-07T08:42:52.426Z,80.04
2018-03-07T08:45:23.248Z,81.37
2018-03-07T08:47:54.085Z,80.29
2018-03-07T08:50:24.954Z,80.69
2018-03-07T08:52:55.751Z,80.03
2018-03-07T08:55:26.598Z,79.42
2018-03-07T08:57:57.490Z,80.77
2018-03-07T09:00:28.333Z,80.08
2018-03-07T09:02:59.172Z,80.56
2018-03-07T09:05:30.035Z,80.09
2018-03-07T09:08:00.942Z,77.70
2018-03-07T09:10:31.819Z,77.38
2018-03-07T09:13:02.675Z,74.37
2018-03-07T09:15:33.521Z,69.99
2018-03-07T09:18:04.313Z,71.55
2018-03-07T09:20:35.168Z,74.01
2018-03-07T09:23:06.037Z,73.69
2018-03-07T09:25:36.915Z,73.38
2018-03-07T09:28:07.760Z,72.03
2018-03-07T09:30:38.628Z,70.99
2018-03-07T09:33:09.440Z,72.40
2018-03-07T09:35:40.278Z,71.27
2018-03-07T09:38:11.151Z,70.57
2018-03-07T09:40:42.014Z,70.01
2018-03-07T09:43:12.860Z,70.12
2018-03-07T09:45:43.670Z,69.70
2018-03-07T09:48:14.470Z,69.54
2018-03-07T09:50:45.270Z,70.46
2018-03-07T09:53:16.105Z,68.45
2018-03-07T09:55:46.938Z,68.58
2018-03-07T09:58:17.738Z,68.17
2018-03-07T10:00:48.602Z,71.00
2018-03-07T10:03:19.417Z,69.52
2018-03-07T10:05:50.249Z,68.86
2018-03-07T10:08:21.090Z,68.57
2018-03-07T10:10:52.417Z,67.74
2018-03-07T10:13:23.232Z,65.96
2018-03-07T10:15:54.042Z,66.75
2018-03-07T10:18:24.841Z,64.84
2018-03-07T10:20:55.654Z,65.86
2018-03-07T10:23:26.445Z,64.89
2018-03-07T10:25:57.326Z,66.27
2018-03-07T10:28:28.178Z,64.99
2018-03-07T10:30:59.006Z,63.90
2018-03-07T10:33:29.864Z,63.42
2018-03-07T10:36:00.725Z,63.81
2018-03-07T10:38:31.562Z,62.92
2018-03-07T10:41:02.451Z,62.81
2018-03-07T10:43:33.302Z,61.39
2018-03-07T10:46:04.150Z,62.04
2018-03-07T10:48:34.965Z,60.51
2018-03-07T10:51:05.759Z,60.32
2018-03-07T10:53:36.584Z,60.99
2018-03-07T10:56:07.413Z,61.55
2018-03-07T10:58:38.207Z,60.92
2018-03-07T11:01:09.049Z,61.14
2018-03-07T11:03:39.920Z,61.93
2018-03-07T11:06:10.774Z,61.11
2018-03-07T11:08:41.605Z,61.36
2018-03-07T11:11:12.435Z,63.14
2018-03-07T11:13:43.306Z,62.56
2018-03-07T11:16:14.154Z,62.96
2018-03-07T11:18:44.978Z,62.98
2018-03-07T11:21:15.794Z,62.06
2018-03-07T11:23:46.617Z,61.82
2018-03-07T11:26:17.490Z,61.45
2018-03-07T11:28:48.376Z,57.95
2018-03-07T11:31:19.222Z,58.95
2018-03-07T11:33:50.067Z,58.33
2018-03-07T11:36:20.896Z,58.03
2018-03-07T11:38:51.711Z,57.22
2018-03-07T11:41:22.585Z,59.44
2018-03-07T11:43:53.481Z,61.63
2018-03-07T11:46:24.318Z,61.05
2018-03-07T11:48:55.176Z,60.89
2018-03-07T11:51:26.009Z,60.70
2018-03-07T11:53:56.848Z,60.44
2018-03-07T11:56:27.711Z,60.35
2018-03-07T11:58:58.527Z,61.08
2018-03-07T12:01:29.360Z,62.53
2018-03-07T12:04:00.202Z,61.21
2018-03-07T12:06:31.161Z,63.42
2018-03-07T12:09:02.078Z,63.37
2018-03-07T12:11:32.947Z,62.16
2018-03-07T12:14:03.846Z,64.36
2018-03-07T12:16:34.719Z,64.98
2018-03-07T12:19:05.595Z,65.97
2018-03-07T12:21:36.473Z,65.69
2018-03-07T12:24:07.311Z,65.63
2018-03-07T12:26:38.143Z,64.34
2018-03-07T12:29:08.995Z,65.08
2018-03-07T12:31:39.917Z,67.16
2018-03-07T12:34:10.749Z,65.65
2018-03-07T12:36:41.585Z,66.20
2018-03-07T12:39:12.425Z,65.40
2018-03-07T12:41:43.272Z,64.71
2018-03-07T12:44:14.131Z,64.04
2018-03-07T12:46:45.998Z,66.05
2018-03-07T12:49:16.858Z,63.70
2018-03-07T12:51:47.687Z,66.57
2018-03-07T12:54:18.486Z,66.63
2018-03-07T12:56:49.307Z,66.30
2018-03-07T12:59:20.142Z,67.55
2018-03-07T13:01:50.941Z,67.63
2018-03-07T13:04:21.809Z,67.47
2018-03-07T13:06:52.717Z,67.54
2018-03-07T13:09:23.483Z,67.15
2018-03-07T13:11:54.306Z,68.23
2018-03-07T13:14:25.120Z,68.57
2018-03-07T13:16:55.959Z,69.55
2018-03-07T13:19:26.809Z,69.46
2018-03-07T13:21:57.659Z,70.01
2018-03-07T13:24:28.504Z,66.83
2018-03-07T13:26:59.409Z,64.33
2018-03-07T13:29:30.260Z,62.81
2018-03-07T13:32:01.113Z,62.19
2018-03-07T13:34:31.941Z,60.97
2018-03-07T13:37:02.782Z,62.23
2018-03-07T13:39:33.634Z,60.43
2018-03-07T13:42:04.513Z,58.87
2018-03-07T13:44:35.365Z,57.09
2018-03-07T13:47:06.199Z,54.39
2018-03-07T13:49:36.977Z,52.35
2018-03-07T13:52:07.806Z,48.43
2018-03-07T13:54:38.680Z,46.79
2018-03-07T13:57:09.513Z,48.06
2018-03-07T13:59:40.397Z,50.14
2018-03-07T14:02:11.332Z,48.25
2018-03-07T14:04:42.163Z,50.34
2018-03-07T14:07:12.970Z,54.59
2018-03-07T14:09:43.780Z,55.04
2018-03-07T14:12:14.598Z,55.72
2018-03-07T14:14:45.440Z,56.61
2018-03-07T14:17:17.336Z,57.69
2018-03-07T14:19:48.194Z,56.38
2018-03-07T14:22:19.059Z,57.35
2018-03-07T14:24:49.906Z,58.13
2018-03-07T14:27:20.705Z,57.50
2018-03-07T14:29:51.538Z,58.74
2018-03-07T14:32:22.328Z,56.99
2018-03-07T14:34:53.194Z,57.13
2018-03-07T14:37:24.035Z,57.28
2018-03-07T14:39:54.884Z,56.71
2018-03-07T14:42:25.674Z,56.97
2018-03-07T14:44:56.557Z,56.18
2018-03-07T14:47:27.368Z,56.68
2018-03-07T14:49:58.212Z,57.99
2018-03-07T14:52:29.044Z,58.30
2018-03-07T14:54:59.878Z,58.58
2018-03-07T14:57:30.719Z,58.82
2018-03-07T15:00:01.566Z,58.81
2018-03-07T15:02:32.409Z,60.11
2018-03-07T15:05:03.287Z,59.35
2018-03-07T15:07:34.147Z,59.54
2018-03-07T15:10:05.044Z,57.96
2018-03-07T15:12:35.904Z,56.99
2018-03-07T15:15:06.780Z,55.82
2018-03-07T15:17:37.632Z,56.16
2018-03-07T15:20:08.516Z,56.13
2018-03-07T15:22:39.362Z,56.56
2018-03-07T15:25:10.183Z,57.22
2018-03-07T15:27:41.002Z,59.52
2018-03-07T15:30:12.423Z,57.64
2018-03-07T15:32:43.250Z,58.78
2018-03-07T15:35:14.178Z,58.68
2018-03-07T15:37:45.067Z,57.77
2018-03-07T15:40:15.889Z,58.18
2018-03-07T15:42:46.763Z,57.51
2018-03-07T15:45:17.606Z,56.18
2018-03-07T15:47:48.431Z,57.35
2018-03-07T15:50:19.269Z,57.74
2018-03-07T15:52:50.098Z,57.80
2018-03-07T15:55:20.950Z,57.55
2018-03-07T15:57:51.803Z,58.01
2018-03-07T16:00:22.684Z,57.50
2018-03-07T16:02:53.526Z,58.40
2018-03-07T16:05:24.381Z,56.82
2018-03-07T16:07:55.222Z,56.88
2018-03-07T16:10:26.112Z,57.73
2018-03-07T16:12:56.966Z,56.61
2018-03-07T16:15:27.848Z,56.05
2018-03-07T16:17:59.693Z,56.34
2018-03-07T16:20:30.531Z,56.55
2018-03-07T16:23:01.399Z,57.33
2018-03-07T16:25:32.274Z,57.56
2018-03-07T16:28:03.138Z,57.68
2018-03-07T16:30:34.077Z,58.69
2018-03-07T16:33:04.992Z,59.76
2018-03-07T16:35:36.962Z,61.47
2018-03-07T16:38:07.823Z,62.58
2018-03-07T16:40:38.662Z,61.22
2018-03-07T16:43:10.592Z,60.29
2018-03-07T16:45:41.443Z,61.47
2018-03-07T16:48:12.341Z,61.80
2018-03-07T16:50:44.214Z,63.11
2018-03-07T16:53:15.058Z,62.07
2018-03-07T16:55:45.929Z,62.82
2018-03-07T16:58:16.760Z,62.91
2018-03-07T17:00:47.598Z,64.12
2018-03-07T17:03:18.413Z,62.98
2018-03-07T17:05:49.266Z,63.79
2018-03-07T17:08:20.046Z,64.45
2018-03-07T17:10:50.949Z,64.27
2018-03-07T17:13:21.768Z,64.90
2018-03-07T17:15:53.283Z,64.18
2018-03-07T17:18:24.217Z,64.33
2018-03-07T17:20:55.129Z,64.84
2018-03-07T17:23:25.979Z,65.08
2018-03-07T17:25:56.908Z,65.73
2018-03-07T17:28:27.742Z,65.29
2018-03-07T17:30:58.740Z,65.27
2018-03-07T17:33:29.583Z,65.14
2018-03-07T17:36:01.256Z,65.37
2018-03-07T17:38:32.083Z,66.00
2018-03-07T17:41:02.993Z,66.85
2018-03-07T17:43:33.852Z,66.24
2018-03-07T17:46:04.743Z,66.17
2018-03-07T17:48:35.642Z,65.64
2018-03-07T17:51:06.526Z,66.22
2018-03-07T17:53:37.380Z,65.19
2018-03-07T17:56:08.309Z,65.08
2018-03-07T17:58:39.115Z,64.57
2018-03-07T18:01:10.070Z,62.76
2018-03-07T18:03:40.930Z,61.59
2018-03-07T18:06:11.893Z,63.43
2018-03-07T18:08:42.743Z,62.77
2018-03-07T18:11:13.647Z,62.80
2018-03-07T18:13:44.503Z,62.37
2018-03-07T18:16:15.395Z,62.49
2018-03-07T18:18:46.236Z,62.50
2018-03-07T18:21:19.199Z,63.53
2018-03-07T18:23:50.045Z,62.77
2018-03-07T18:26:20.910Z,64.37
2018-03-07T18:28:51.723Z,63.54
2018-03-07T18:31:22.613Z,64.29
2018-03-07T18:33:53.492Z,65.46
2018-03-07T18:36:24.323Z,66.06
2018-03-07T18:38:55.168Z,65.59
2018-03-07T18:41:27.111Z,64.77
2018-03-07T18:43:57.947Z,65.06
2018-03-07T18:46:28.767Z,64.77
2018-03-07T18:48:59.628Z,65.34
2018-03-07T18:51:30.486Z,65.74
2018-03-07T18:54:01.318Z,65.74
2018-03-07T18:56:32.228Z,65.86
2018-03-07T18:59:03.072Z,66.55
2018-03-07T19:01:33.930Z,66.77
2018-03-07T19:04:04.777Z,66.22
2018-03-07T19:06:36.369Z,67.04
2018-03-07T19:09:07.228Z,67.80
2018-03-07T19:11:39.117Z,67.31
2018-03-07T19:14:10.004Z,67.91
2018-03-07T19:16:40.861Z,68.43
2018-03-07T19:19:11.705Z,69.10
2018-03-07T19:21:42.539Z,69.65
2018-03-07T19:24:13.404Z,69.70
2018-03-07T19:26:44.257Z,70.29
2018-03-07T19:29:15.105Z,70.79
2018-03-07T19:31:45.999Z,71.54
2018-03-07T19:34:16.878Z,71.29
2018-03-07T19:36:47.723Z,71.02
2018-03-07T19:39:18.602Z,70.91
2018-03-07T19:41:49.492Z,71.12
2018-03-07T19:44:21.370Z,70.58
2018-03-07T19:46:52.259Z,71.23
2018-03-07T19:49:23.075Z,70.17
2018-03-07T19:51:53.881Z,70.95
2018-03-07T19:54:24.693Z,70.78
2018-03-07T19:56:55.538Z,71.15
2018-03-07T19:59:26.405Z,71.36
2018-03-07T20:01:57.262Z,71.17
2018-03-07T20:04:28.079Z,71.87
2018-03-07T20:06:58.900Z,72.20
2018-03-07T20:09:29.717Z,72.44
2018-03-07T20:12:00.609Z,72.80
2018-03-07T20:14:31.438Z,73.44
2018-03-07T20:17:03.393Z,73.56
2018-03-07T20:19:34.225Z,74.17
2018-03-07T20:22:05.082Z,74.16
2018-03-07T20:24:35.972Z,74.49
2018-03-07T20:27:06.846Z,75.22
2018-03-07T20:29:37.681Z,74.94
2018-03-07T20:32:08.657Z,74.73
2018-03-07T20:34:39.517Z,74.46
2018-03-07T20:37:10.437Z,74.91
2018-03-07T20:39:41.337Z,74.84
2018-03-07T20:42:12.282Z,74.89
2018-03-07T20:44:43.683Z,75.35
2018-03-07T20:47:14.582Z,75.13
2018-03-07T20:49:45.500Z,75.25
2018-03-07T20:52:16.409Z,75.46
2018-03-07T20:54:47.268Z,76.08
2018-03-07T20:57:18.352Z,76.41
2018-03-07T20:59:49.261Z,76.72
2018-03-07T21:02:20.146Z,76.65
2018-03-07T21:04:51.133Z,76.87
2018-03-07T21:07:22.008Z,76.78
2018-03-07T21:09:52.862Z,76.39
2018-03-07T21:12:23.758Z,76.71
2018-03-07T21:14:54.696Z,76.14
2018-03-07T21:17:25.637Z,76.30
2018-03-07T21:19:56.526Z,76.17
2018-03-07T21:22:29.446Z,76.35
2018-03-07T21:25:00.335Z,76.07
2018-03-07T21:27:31.231Z,76.32
2018-03-07T21:30:02.091Z,76.69
2018-03-07T21:32:32.990Z,76.94
2018-03-07T21:35:03.969Z,77.17
2018-03-07T21:37:34.871Z,77.63
2018-03-07T21:40:05.777Z,77.38
2018-03-07T21:42:36.698Z,77.85
2018-03-07T21:45:07.587Z,77.77
2018-03-07T21:47:38.439Z,77.80
2018-03-07T21:50:09.297Z,78.18
2018-03-07T21:52:40.163Z,78.04
2018-03-07T21:55:11.002Z,78.10
2018-03-07T21:57:41.924Z,78.40
2018-03-07T22:00:12.804Z,78.27
2018-03-07T22:02:43.741Z,78.44
2018-03-07T22:05:14.598Z,78.26
2018-03-07T22:07:45.493Z,77.80
2018-03-07T22:10:16.388Z,77.37
2018-03-07T22:12:47.309Z,77.01
2018-03-07T22:15:18.242Z,76.88
2018-03-07T22:17:49.113Z,76.67
2018-03-07T22:20:20.013Z,76.97
2018-03-07T22:22:50.878Z,76.74
2018-03-07T22:25:21.792Z,76.63
2018-03-07T22:27:52.729Z,76.61
2018-03-07T22:30:23.615Z,76.76
2018-03-07T22:32:54.513Z,76.53
2018-03-07T22:35:25.376Z,77.05
2018-03-07T22:37:56.206Z,77.09
2018-03-07T22:40:27.060Z,77.04
2018-03-07T22:42:58.971Z,77.14
2018-03-07T22:45:29.864Z,77.21
2018-03-07T22:48:00.700Z,77.32
2018-03-07T22:50:31.591Z,77.71
2018-03-07T22:53:02.449Z,78.24
2018-03-07T22:55:33.343Z,78.63
2018-03-07T22:58:04.191Z,79.41
2018-03-07T23:00:41.096Z,79.80
2018-03-07T23:03:11.945Z,80.48
2018-03-07T23:05:42.846Z,81.31
2018-03-07T23:08:13.742Z,81.31
2018-03-07T23:10:44.644Z,81.86
2018-03-07T23:13:15.494Z,82.36
2018-03-07T23:15:46.335Z,82.28
2018-03-07T23:18:17.202Z,82.66
2018-03-07T23:20:48.085Z,82.77
2018-03-07T23:23:18.944Z,83.35
2018-03-07T23:25:49.842Z,83.87
2018-03-07T23:28:20.729Z,84.25
2018-03-07T23:30:51.584Z,84.33
2018-03-07T23:33:22.458Z,84.34
2018-03-07T23:35:53.322Z,84.55
2018-03-07T23:38:24.194Z,84.62
2018-03-07T23:40:55.068Z,84.66
2018-03-07T23:43:25.912Z,84.29
2018-03-07T23:45:56.752Z,83.92
2018-03-07T23:48:27.638Z,83.22
2018-03-07T23:50:58.542Z,82.85
2018-03-07T23:53:29.443Z,82.52
2018-03-07T23:56:00.292Z,82.23
2018-03-07T23:58:31.155Z,82.18
